createdAt,value
2018-08-25T00:01:12.739Z,16.40
2018-08-25T00:03:42.060Z,16.40
2018-08-25T00:06:11.343Z,16.40
2018-08-25T00:08:40.651Z,16.30
2018-08-25T00:11:10.617Z,16.30
2018-08-25T00:13:40.048Z,16.30
2018-08-25T00:16:09.386Z,16.30
2018-08-25T00:18:38.715Z,16.30
2018-08-25T00:21:07.991Z,16.20
2018-08-25T00:26:06.122Z,16.10
2018-08-25T00:28:35.543Z,16.10
2018-08-25T00:33:38.990Z,16.00
2018-08-25T00:36:08.248Z,16.00
2018-08-25T00:38:37.582Z,16.00
2018-08-25T00:41:06.906Z,15.90
2018-08-25T00:43:36.319Z,15.90
2018-08-25T00:46:05.490Z,15.90
2018-08-25T00:48:34.895Z,15.80
2018-08-25T00:51:04.530Z,15.70
2018-08-25T00:53:34.166Z,15.70
2018-08-25T00:56:03.456Z,15.70
2018-08-25T00:58:32.788Z,15.60
2018-08-25T01:01:02.431Z,15.60
2018-08-25T01:03:31.847Z,15.50
2018-08-25T01:06:01.203Z,15.50
2018-08-25T01:08:30.574Z,15.50
2018-08-25T01:10:59.875Z,15.40
2018-08-25T01:13:29.178Z,15.40
2018-08-25T01:15:58.454Z,15.30
2018-08-25T01:18:27.780Z,15.20
2018-08-25T01:20:57.055Z,15.20
2018-08-25T01:23:26.363Z,15.10
2018-08-25T01:25:55.619Z,15.00
2018-08-25T01:28:24.956Z,15.00
2018-08-25T01:30:54.346Z,14.90
2018-08-25T01:33:23.724Z,14.90
2018-08-25T01:35:53.055Z,14.80
2018-08-25T01:38:22.399Z,14.80
2018-08-25T01:40:51.775Z,14.70
2018-08-25T01:43:21.130Z,14.60
2018-08-25T01:45:50.529Z,14.60
2018-08-25T01:48:19.815Z,14.60
2018-08-25T01:50:49.083Z,14.50
2018-08-25T01:53:18.376Z,14.40
2018-08-25T01:55:47.813Z,14.40
2018-08-25T01:58:17.019Z,14.30
2018-08-25T02:00:46.311Z,14.20
2018-08-25T02:03:15.625Z,14.20
2018-08-25T02:05:44.944Z,14.20
2018-08-25T02:08:14.222Z,14.20
2018-08-25T02:10:43.547Z,14.20
2018-08-25T02:13:12.842Z,14.20
2018-08-25T02:15:45.343Z,14.20
2018-08-25T02:18:14.643Z,14.20
2018-08-25T02:20:43.987Z,14.20
2018-08-25T02:23:13.295Z,14.20
2018-08-25T02:25:42.527Z,14.20
2018-08-25T02:28:11.799Z,14.10
2018-08-25T02:30:41.195Z,14.10
2018-08-25T02:33:10.461Z,14.10
2018-08-25T02:35:39.809Z,14.10
2018-08-25T02:38:09.157Z,14.10
2018-08-25T02:40:38.507Z,14.20
2018-08-25T02:43:07.795Z,14.20
2018-08-25T02:45:37.123Z,14.20
2018-08-25T02:48:06.422Z,14.20
2018-08-25T02:50:35.774Z,14.20
2018-08-25T02:53:05.180Z,14.20
2018-08-25T02:55:34.550Z,14.20
2018-08-25T02:58:03.825Z,14.20
2018-08-25T03:00:33.142Z,14.20
2018-08-25T03:03:02.407Z,14.20
2018-08-25T03:05:31.716Z,14.30
2018-08-25T03:08:01.040Z,14.20
2018-08-25T03:10:30.388Z,14.30
2018-08-25T03:12:59.631Z,14.20
2018-08-25T03:15:28.959Z,14.30
2018-08-25T03:17:58.232Z,14.20
2018-08-25T03:20:27.587Z,14.20
2018-08-25T03:22:56.915Z,14.20
2018-08-25T03:25:26.255Z,14.30
2018-08-25T03:27:55.554Z,14.20
2018-08-25T03:30:24.865Z,14.20
2018-08-25T03:32:54.244Z,14.20
2018-08-25T03:35:23.573Z,14.20
2018-08-25T03:37:52.991Z,14.20
2018-08-25T03:40:22.384Z,14.20
2018-08-25T03:42:51.707Z,14.20
2018-08-25T03:45:20.947Z,14.10
2018-08-25T03:47:50.301Z,14.10
2018-08-25T03:50:19.603Z,14.10
2018-08-25T03:52:48.950Z,14.00
2018-08-25T03:55:18.286Z,14.00
2018-08-25T03:57:47.666Z,14.00
2018-08-25T04:00:17.009Z,13.90
2018-08-25T04:02:46.343Z,13.80
2018-08-25T04:05:15.701Z,13.80
2018-08-25T04:07:45.056Z,13.70
2018-08-25T04:10:14.435Z,13.70
2018-08-25T04:12:43.766Z,13.70
2018-08-25T04:15:13.043Z,13.70
2018-08-25T04:17:42.316Z,13.70
2018-08-25T04:20:11.645Z,13.60
2018-08-25T04:22:40.939Z,13.60
2018-08-25T04:25:10.266Z,13.60
2018-08-25T04:27:39.589Z,13.50
2018-08-25T04:30:08.969Z,13.50
2018-08-25T04:32:38.495Z,13.50
2018-08-25T04:35:07.859Z,13.40
2018-08-25T04:37:37.238Z,13.40
2018-08-25T04:40:06.575Z,13.40
2018-08-25T04:42:35.801Z,13.40
2018-08-25T04:45:05.110Z,13.40
2018-08-25T04:47:34.487Z,13.40
2018-08-25T04:50:03.879Z,13.40
2018-08-25T04:52:33.373Z,13.40
2018-08-25T04:55:02.651Z,13.40
2018-08-25T04:57:32.067Z,13.40
2018-08-25T05:00:01.350Z,13.40
2018-08-25T05:02:30.640Z,13.40
2018-08-25T05:04:59.994Z,13.50
2018-08-25T05:07:29.328Z,13.50
2018-08-25T05:09:58.678Z,13.50
2018-08-25T05:12:28.023Z,13.50
2018-08-25T05:14:57.377Z,13.60
2018-08-25T05:17:26.807Z,13.60
2018-08-25T05:19:56.171Z,13.60
2018-08-25T05:22:25.488Z,13.60
2018-08-25T05:25:05.463Z,13.70
2018-08-25T05:27:34.751Z,13.80
2018-08-25T05:30:04.319Z,13.80
2018-08-25T05:32:33.630Z,13.80
2018-08-25T05:35:02.956Z,13.90
2018-08-25T05:37:32.294Z,14.00
2018-08-25T05:40:01.639Z,14.10
2018-08-25T05:42:30.952Z,14.20
2018-08-25T05:45:00.295Z,14.30
2018-08-25T05:49:58.354Z,14.40
2018-08-25T05:52:27.662Z,14.50
2018-08-25T05:54:56.999Z,14.60
2018-08-25T05:57:26.287Z,14.60
2018-08-25T05:59:55.683Z,14.70
2018-08-25T06:02:25.027Z,14.70
2018-08-25T06:04:54.339Z,14.70
2018-08-25T06:07:23.639Z,14.80
2018-08-25T06:09:52.955Z,14.90
2018-08-25T06:12:22.243Z,14.90
2018-08-25T06:14:51.596Z,15.00
2018-08-25T06:17:20.916Z,15.00
2018-08-25T06:19:50.279Z,15.10
2018-08-25T06:22:19.620Z,15.10
2018-08-25T06:24:48.931Z,15.20
2018-08-25T06:27:18.258Z,15.30
2018-08-25T06:29:47.609Z,15.40
2018-08-25T06:32:16.886Z,15.40
2018-08-25T06:34:46.211Z,15.60
2018-08-25T06:37:15.512Z,15.60
2018-08-25T06:39:44.819Z,15.60
2018-08-25T06:42:14.123Z,15.50
2018-08-25T06:44:43.391Z,15.40
2018-08-25T06:47:12.670Z,15.40
2018-08-25T06:49:42.015Z,15.30
2018-08-25T06:52:11.349Z,15.30
2018-08-25T06:54:40.675Z,15.40
2018-08-25T06:57:09.994Z,15.40
2018-08-25T06:59:39.358Z,15.40
2018-08-25T07:02:08.672Z,15.40
2018-08-25T07:04:38.004Z,15.40
2018-08-25T07:07:07.353Z,15.30
2018-08-25T07:09:36.678Z,15.20
2018-08-25T07:12:06.051Z,15.10
2018-08-25T07:14:35.390Z,15.00
2018-08-25T07:17:04.844Z,14.90
2018-08-25T07:19:34.158Z,14.90
2018-08-25T07:22:03.515Z,14.90
2018-08-25T07:24:32.778Z,14.90
2018-08-25T07:27:02.103Z,14.80
2018-08-25T07:29:31.927Z,14.80
2018-08-25T07:32:01.328Z,14.80
2018-08-25T07:34:30.663Z,14.80
2018-08-25T07:36:59.967Z,14.70
2018-08-25T07:39:29.283Z,14.70
2018-08-25T07:41:58.686Z,14.70
2018-08-25T07:44:27.976Z,14.70
2018-08-25T07:46:57.363Z,14.60
2018-08-25T07:49:26.702Z,14.60
2018-08-25T07:51:56.168Z,14.50
2018-08-25T07:54:25.440Z,14.50
2018-08-25T07:56:54.772Z,14.50
2018-08-25T07:59:24.116Z,14.60
2018-08-25T08:01:53.448Z,14.50
2018-08-25T08:04:22.791Z,14.40
2018-08-25T08:06:52.131Z,14.30
2018-08-25T08:09:21.402Z,14.30
2018-08-25T08:11:50.777Z,14.40
2018-08-25T08:14:20.033Z,14.40
2018-08-25T08:16:49.359Z,14.50
2018-08-25T08:19:18.688Z,14.50
2018-08-25T08:21:48.023Z,14.60
2018-08-25T08:24:17.376Z,14.70
2018-08-25T08:26:46.746Z,14.60
2018-08-25T08:29:16.035Z,14.70
2018-08-25T08:31:45.349Z,14.70
2018-08-25T08:34:14.556Z,14.50
2018-08-25T08:36:43.843Z,14.70
2018-08-25T08:39:13.147Z,14.80
2018-08-25T08:41:42.484Z,14.90
2018-08-25T08:44:11.884Z,15.00
2018-08-25T08:46:41.169Z,15.00
2018-08-25T08:49:10.556Z,15.00
2018-08-25T08:51:39.900Z,15.00
2018-08-25T08:54:09.265Z,15.00
2018-08-25T08:56:39.676Z,15.10
2018-08-25T08:59:09.007Z,15.20
2018-08-25T09:01:38.348Z,15.20
2018-08-25T09:04:07.755Z,15.30
2018-08-25T09:06:37.068Z,15.40
2018-08-25T09:09:09.681Z,15.60
2018-08-25T09:11:39.373Z,15.80
2018-08-25T09:14:08.696Z,15.90
2018-08-25T09:16:37.999Z,15.90
2018-08-25T09:19:07.299Z,15.70
2018-08-25T09:21:36.627Z,15.60
2018-08-25T09:24:05.978Z,15.60
2018-08-25T09:26:35.352Z,15.70
2018-08-25T09:29:04.644Z,15.60
2018-08-25T09:31:33.943Z,15.70
2018-08-25T09:34:03.363Z,15.60
2018-08-25T09:36:32.772Z,15.50
2018-08-25T09:39:01.963Z,15.40
2018-08-25T09:41:31.313Z,15.30
2018-08-25T09:44:00.682Z,15.30
2018-08-25T09:49:23.457Z,15.40
2018-08-25T09:51:53.855Z,15.40
2018-08-25T09:54:23.240Z,15.60
2018-08-25T09:56:52.562Z,15.60
2018-08-25T09:59:21.891Z,15.70
2018-08-25T10:01:56.334Z,15.90
2018-08-25T10:04:25.680Z,16.00
2018-08-25T10:06:55.185Z,16.10
2018-08-25T10:09:24.861Z,16.20
2018-08-25T10:11:54.224Z,16.10
2018-08-25T10:14:23.506Z,16.50
2018-08-25T10:16:52.889Z,16.70
2018-08-25T10:19:22.190Z,16.60
2018-08-25T10:21:51.510Z,16.50
2018-08-25T10:24:21.195Z,16.40
2018-08-25T10:26:50.486Z,16.10
2018-08-25T10:29:26.300Z,15.60
2018-08-25T10:31:55.559Z,15.60
2018-08-25T10:34:24.855Z,15.50
2018-08-25T10:36:54.063Z,15.30
2018-08-25T10:39:28.989Z,15.30
2018-08-25T10:41:58.260Z,15.30
2018-08-25T10:44:27.529Z,15.30
2018-08-25T10:46:57.040Z,15.40
2018-08-25T10:49:26.372Z,15.30
2018-08-25T10:51:55.690Z,15.40
2018-08-25T10:54:24.948Z,15.70
2018-08-25T10:56:54.311Z,15.70
2018-08-25T10:59:23.731Z,16.10
2018-08-25T11:01:53.093Z,16.40
2018-08-25T11:04:22.416Z,16.80
2018-08-25T11:06:51.747Z,17.20
2018-08-25T11:09:21.071Z,17.50
2018-08-25T11:11:50.419Z,17.70
2018-08-25T11:14:19.733Z,18.00
2018-08-25T11:16:49.132Z,18.10
2018-08-25T11:19:18.400Z,18.20
2018-08-25T11:21:47.795Z,18.60
2018-08-25T11:26:45.969Z,19.30
2018-08-25T11:29:15.290Z,19.50
2018-08-25T11:31:44.939Z,19.90
2018-08-25T11:34:14.267Z,20.30
2018-08-25T11:36:43.668Z,21.00
2018-08-25T11:39:12.987Z,21.40
2018-08-25T11:41:42.584Z,21.60
2018-08-25T11:44:11.901Z,21.60
2018-08-25T11:46:41.212Z,21.40
2018-08-25T11:49:14.683Z,21.20
2018-08-25T11:51:44.039Z,20.90
2018-08-25T11:54:13.307Z,20.90
2018-08-25T11:56:42.606Z,20.70
2018-08-25T11:59:11.947Z,21.10
2018-08-25T12:01:41.386Z,21.40
2018-08-25T12:04:10.631Z,21.40
2018-08-25T12:06:39.978Z,21.70
2018-08-25T12:09:11.551Z,22.10
2018-08-25T12:11:40.860Z,22.20
2018-08-25T12:14:10.184Z,22.50
2018-08-25T12:16:40.311Z,23.00
2018-08-25T12:19:09.663Z,23.60
2018-08-25T12:21:38.995Z,23.60
2018-08-25T12:24:08.449Z,24.30
2018-08-25T12:26:37.818Z,24.30
2018-08-25T12:29:07.134Z,24.80
2018-08-25T12:31:36.511Z,25.00
2018-08-25T12:34:06.713Z,25.10
2018-08-25T12:36:36.042Z,24.40
2018-08-25T12:39:08.115Z,24.80
2018-08-25T12:41:37.431Z,25.10
2018-08-25T12:44:06.854Z,24.80
2018-08-25T12:46:36.163Z,24.70
2018-08-25T12:49:05.619Z,24.90
2018-08-25T12:51:34.910Z,26.10
2018-08-25T12:54:04.189Z,26.40
2018-08-25T12:56:33.542Z,26.60
2018-08-25T12:59:02.939Z,26.00
2018-08-25T13:01:32.341Z,25.70
2018-08-25T13:04:01.751Z,25.70
2018-08-25T13:06:31.102Z,25.70
2018-08-25T13:09:00.411Z,25.10
2018-08-25T13:11:29.683Z,25.40
2018-08-25T13:13:58.999Z,25.10
2018-08-25T13:16:28.297Z,25.50
2018-08-25T13:18:57.703Z,24.50
2018-08-25T13:21:26.960Z,24.20
2018-08-25T13:23:56.272Z,24.50
2018-08-25T13:26:25.535Z,24.50
2018-08-25T13:28:54.844Z,24.50
2018-08-25T13:31:24.157Z,24.60
2018-08-25T13:33:53.517Z,24.90
2018-08-25T13:36:22.829Z,24.70
2018-08-25T13:38:52.224Z,24.60
2018-08-25T13:41:21.475Z,24.50
2018-08-25T13:43:50.802Z,24.80
2018-08-25T13:46:20.120Z,24.50
2018-08-25T13:48:49.521Z,25.10
2018-08-25T13:51:18.732Z,25.40
2018-08-25T13:53:48.014Z,25.30
2018-08-25T13:56:17.230Z,25.00
2018-08-25T13:58:46.498Z,25.30
2018-08-25T14:01:15.924Z,25.90
2018-08-25T14:03:45.304Z,25.90
2018-08-25T14:06:14.527Z,26.00
2018-08-25T14:08:43.968Z,25.60
2018-08-25T14:11:13.298Z,25.30
2018-08-25T14:13:42.631Z,24.90
2018-08-25T14:16:12.067Z,25.00
2018-08-25T14:18:41.659Z,24.90
2018-08-25T14:21:10.939Z,24.60
2018-08-25T14:23:40.327Z,24.50
2018-08-25T14:26:09.620Z,24.50
2018-08-25T14:28:38.941Z,24.40
2018-08-25T14:31:08.283Z,24.70
2018-08-25T14:33:42.179Z,25.10
2018-08-25T14:36:11.613Z,25.00
2018-08-25T14:38:41.003Z,24.70
2018-08-25T14:41:10.385Z,24.70
2018-08-25T14:43:39.775Z,24.70
2018-08-25T14:46:09.046Z,24.50
2018-08-25T14:48:38.493Z,24.50
2018-08-25T14:51:08.021Z,24.80
2018-08-25T14:53:37.392Z,24.40
2018-08-25T14:56:06.832Z,24.20
2018-08-25T14:58:36.129Z,24.10
2018-08-25T15:01:05.726Z,23.50
2018-08-25T15:03:35.171Z,23.50
2018-08-25T15:06:04.590Z,24.10
2018-08-25T15:08:33.911Z,24.30
2018-08-25T15:11:03.291Z,24.20
2018-08-25T15:13:32.705Z,23.80
2018-08-25T15:16:02.032Z,23.70
2018-08-25T15:18:31.614Z,23.90
2018-08-25T15:21:00.899Z,23.50
2018-08-25T15:23:30.217Z,23.40
2018-08-25T15:25:59.561Z,23.10
2018-08-25T15:28:28.891Z,23.20
2018-08-25T15:30:58.221Z,23.10
2018-08-25T15:33:27.430Z,22.90
2018-08-25T15:35:56.797Z,22.80
2018-08-25T15:38:26.042Z,22.70
2018-08-25T15:40:55.372Z,22.70
2018-08-25T15:43:24.751Z,22.40
2018-08-25T15:45:54.095Z,22.50
2018-08-25T15:48:23.564Z,22.50
2018-08-25T15:50:52.902Z,22.40
2018-08-25T15:53:22.340Z,22.40
2018-08-25T15:55:51.700Z,22.60
2018-08-25T15:58:21.246Z,22.60
2018-08-25T16:00:51.631Z,22.40
2018-08-25T16:03:20.925Z,22.40
2018-08-25T16:05:50.201Z,22.00
2018-08-25T16:08:19.615Z,21.80
2018-08-25T16:10:58.855Z,22.00
2018-08-25T16:13:29.936Z,22.20
2018-08-25T16:15:59.496Z,22.20
2018-08-25T16:18:28.892Z,22.10
2018-08-25T16:20:58.252Z,22.10
2018-08-25T16:23:27.691Z,21.90
2018-08-25T16:25:56.996Z,21.80
2018-08-25T16:28:26.572Z,21.80
2018-08-25T16:30:55.953Z,21.50
2018-08-25T16:33:25.278Z,21.30
2018-08-25T16:35:54.678Z,21.30
2018-08-25T16:38:24.034Z,21.40
2018-08-25T16:40:53.369Z,21.30
2018-08-25T16:43:22.792Z,21.10
2018-08-25T16:45:52.216Z,21.10
2018-08-25T16:48:21.539Z,21.00
2018-08-25T16:50:51.026Z,21.10
2018-08-25T16:53:20.394Z,21.00
2018-08-25T16:55:49.896Z,21.20
2018-08-25T16:58:19.191Z,21.10
2018-08-25T17:00:48.525Z,21.10
2018-08-25T17:03:17.860Z,20.90
2018-08-25T17:05:47.099Z,20.90
2018-08-25T17:08:16.478Z,21.00
2018-08-25T17:10:45.799Z,21.10
2018-08-25T17:13:15.130Z,20.80
2018-08-25T17:15:44.523Z,20.70
2018-08-25T17:18:13.830Z,20.70
2018-08-25T17:20:43.148Z,20.60
2018-08-25T17:23:12.858Z,20.30
2018-08-25T17:25:42.155Z,20.30
2018-08-25T17:28:11.479Z,20.10
2018-08-25T17:30:40.833Z,19.90
2018-08-25T17:33:10.192Z,19.80
2018-08-25T17:35:39.554Z,19.80
2018-08-25T17:38:09.018Z,19.70
2018-08-25T17:40:38.327Z,19.50
2018-08-25T17:43:20.290Z,19.20
2018-08-25T17:45:49.628Z,19.00
2018-08-25T17:48:19.043Z,19.10
2018-08-25T17:50:48.371Z,18.90
2018-08-25T17:53:17.933Z,18.80
2018-08-25T17:55:47.235Z,18.80
2018-08-25T17:58:16.923Z,18.70
2018-08-25T18:00:46.243Z,18.60
2018-08-25T18:03:15.858Z,18.60
2018-08-25T18:05:45.135Z,18.50
2018-08-25T18:08:14.505Z,18.40
2018-08-25T18:10:43.800Z,18.40
2018-08-25T18:13:13.230Z,18.40
2018-08-25T18:15:42.637Z,18.30
2018-08-25T18:18:12.052Z,18.30
2018-08-25T18:20:41.407Z,18.30
2018-08-25T18:23:10.727Z,18.20
2018-08-25T18:25:40.049Z,18.20
2018-08-25T18:28:09.387Z,18.10
2018-08-25T18:30:38.707Z,17.90
2018-08-25T18:33:08.247Z,17.80
2018-08-25T18:35:37.719Z,17.70
2018-08-25T18:38:07.102Z,17.80
2018-08-25T18:40:36.467Z,17.70
2018-08-25T18:43:05.845Z,17.70
2018-08-25T18:45:35.223Z,17.60
2018-08-25T18:48:04.589Z,17.50
2018-08-25T18:50:33.934Z,17.40
2018-08-25T18:53:03.480Z,17.30
2018-08-25T18:55:32.763Z,17.20
2018-08-25T18:58:02.016Z,17.00
2018-08-25T19:00:31.347Z,16.90
2018-08-25T19:03:00.715Z,16.70
2018-08-25T19:05:30.103Z,16.60
2018-08-25T19:07:59.406Z,16.50
2018-08-25T19:10:28.755Z,16.20
2018-08-25T19:12:58.099Z,16.00
2018-08-25T19:15:27.443Z,16.00
2018-08-25T19:17:56.826Z,16.00
2018-08-25T19:20:26.164Z,15.90
2018-08-25T19:22:55.578Z,15.90
2018-08-25T19:25:24.881Z,15.90
2018-08-25T19:27:54.094Z,15.80
2018-08-25T19:30:23.473Z,15.80
2018-08-25T19:32:52.796Z,15.60
2018-08-25T19:35:22.307Z,15.60
2018-08-25T19:37:51.744Z,15.50
2018-08-25T19:40:21.035Z,15.40
2018-08-25T19:42:50.643Z,15.40
2018-08-25T19:45:20.027Z,15.40
2018-08-25T19:47:49.264Z,15.40
2018-08-25T19:50:18.655Z,15.40
2018-08-25T19:52:48.625Z,15.40
2018-08-25T19:55:17.959Z,15.10
2018-08-25T19:57:47.199Z,15.10
2018-08-25T20:00:16.568Z,15.00
2018-08-25T20:02:46.269Z,15.00
2018-08-25T20:05:15.842Z,14.90
2018-08-25T20:07:45.096Z,14.90
2018-08-25T20:10:14.445Z,14.90
2018-08-25T20:12:43.664Z,14.70
2018-08-25T20:15:13.095Z,14.40
2018-08-25T20:17:42.470Z,14.30
2018-08-25T20:20:11.939Z,14.30
2018-08-25T20:22:41.363Z,14.20
2018-08-25T20:25:10.763Z,14.10
2018-08-25T20:27:40.083Z,14.10
2018-08-25T20:30:10.514Z,14.20
2018-08-25T20:32:39.843Z,14.20
2018-08-25T20:35:09.366Z,14.20
2018-08-25T20:37:38.663Z,14.10
2018-08-25T20:40:08.105Z,14.20
2018-08-25T20:42:37.407Z,14.10
2018-08-25T20:45:06.783Z,14.10
2018-08-25T20:47:36.243Z,14.00
2018-08-25T20:50:06.186Z,14.00
2018-08-25T20:52:35.519Z,13.80
2018-08-25T20:55:04.847Z,13.90
2018-08-25T20:57:34.171Z,13.90
2018-08-25T21:00:03.847Z,13.80
2018-08-25T21:02:33.192Z,13.60
2018-08-25T21:05:02.487Z,13.60
2018-08-25T21:07:31.792Z,13.70
2018-08-25T21:10:01.085Z,13.70
2018-08-25T21:12:30.514Z,13.70
2018-08-25T21:14:59.826Z,13.70
2018-08-25T21:17:29.210Z,13.70
2018-08-25T21:19:58.459Z,13.70
2018-08-25T21:22:27.777Z,13.60
2018-08-25T21:24:57.153Z,13.50
2018-08-25T21:27:26.552Z,13.50
2018-08-25T21:29:55.970Z,13.50
2018-08-25T21:32:25.319Z,13.30
2018-08-25T21:34:54.621Z,13.20
2018-08-25T21:37:23.944Z,13.30
2018-08-25T21:39:53.251Z,13.30
2018-08-25T21:42:22.823Z,13.20
2018-08-25T21:44:52.112Z,13.10
2018-08-25T21:47:21.409Z,13.00
2018-08-25T21:49:50.770Z,13.10
2018-08-25T21:52:20.156Z,13.10
2018-08-25T21:54:49.485Z,13.00
2018-08-25T21:57:18.932Z,13.00
2018-08-25T21:59:48.240Z,13.00
2018-08-25T22:02:17.619Z,13.00
2018-08-25T22:04:47.423Z,12.90
2018-08-25T22:07:16.780Z,12.90
2018-08-25T22:09:46.095Z,12.80
2018-08-25T22:12:15.415Z,12.80
2018-08-25T22:14:44.716Z,12.70
2018-08-25T22:17:14.080Z,12.70
2018-08-25T22:19:43.485Z,12.70
2018-08-25T22:22:12.854Z,12.60
2018-08-25T22:24:42.234Z,12.60
2018-08-25T22:27:11.605Z,12.50
2018-08-25T22:29:40.950Z,12.50
2018-08-25T22:32:10.279Z,12.40
2018-08-25T22:34:39.660Z,12.30
2018-08-25T22:37:08.990Z,12.30
2018-08-25T22:39:38.355Z,12.10
2018-08-25T22:42:07.684Z,12.10
2018-08-25T22:44:37.031Z,12.00
2018-08-25T22:47:06.394Z,12.00
2018-08-25T22:49:35.738Z,12.00
2018-08-25T22:52:05.120Z,12.00
2018-08-25T22:54:34.522Z,12.00
2018-08-25T22:57:03.789Z,11.90
2018-08-25T22:59:33.115Z,11.90
2018-08-25T23:02:02.391Z,11.90
2018-08-25T23:04:31.706Z,11.80
2018-08-25T23:07:00.998Z,11.80
2018-08-25T23:09:30.315Z,11.80
2018-08-25T23:11:59.625Z,11.80
2018-08-25T23:14:28.998Z,11.80
2018-08-25T23:16:58.332Z,11.70
2018-08-25T23:19:27.716Z,11.60
2018-08-25T23:21:57.031Z,11.60
2018-08-25T23:24:26.353Z,11.50
2018-08-25T23:26:55.682Z,11.50
2018-08-25T23:29:25.049Z,11.40
2018-08-25T23:31:54.326Z,11.40
2018-08-25T23:34:23.663Z,11.30
2018-08-25T23:36:52.847Z,11.20
2018-08-25T23:39:22.209Z,11.20
2018-08-25T23:41:51.471Z,11.10
2018-08-25T23:44:20.812Z,11.10
2018-08-25T23:46:50.099Z,11.10
2018-08-25T23:49:19.470Z,11.10
2018-08-25T23:51:48.906Z,11.00
2018-08-25T23:54:18.147Z,11.00
2018-08-25T23:56:47.379Z,11.00
2018-08-25T23:59:16.735Z,11.00
